Time;durP1;ratioP1;P1;durP2;ratioP2;P2;SDS_P1;SDS_P2;PMS_P1;PMS_P2;Temp;Humidity;BMP_temperature;BMP_pressure;BME280_temperature;BME280_humidity;BME280_pressure;Samples;Min_cycle;Max_cycle;Signal;HPM_P1;HPM_P2
2023/12/19 00:00:55;;;;;;;42.70;21.08;;;;;;;;;;6190628;23;20016;-91
2023/12/19 00:03:24;;;;;;;42.95;21.80;;;;;;;;;;6190715;23;20009;-91
2023/12/19 00:05:57;;;;;;;44.80;21.80;;;;;;;;;;6191669;23;20429;-91
2023/12/19 00:08:25;;;;;;;47.75;22.52;;;;;;;;;;6190556;23;20459;-91
2023/12/19 00:10:54;;;;;;;45.75;22.20;;;;;;;;;;6191325;23;20011;-91
2023/12/19 00:13:27;;;;;;;47.95;23.15;;;;;;;;;;6190515;23;20005;-91
2023/12/19 00:16:03;;;;;;;44.83;21.02;;;;;;;;;;6190988;23;20032;-90
2023/12/19 00:18:30;;;;;;;44.67;21.67;;;;;;;;;;6189755;23;20083;-91
2023/12/19 00:21:02;;;;;;;50.65;22.48;;;;;;;;;;6154650;23;20367;-90
2023/12/19 00:23:30;;;;;;;47.25;21.83;;;;;;;;;;6130515;23;20017;-91
2023/12/19 00:26:00;;;;;;;41.60;19.27;;;;;;;;;;6130302;23;20001;-90
2023/12/19 00:28:27;;;;;;;48.22;21.85;;;;;;;;;;6130369;23;20013;-91
2023/12/19 00:30:58;;;;;;;43.42;20.90;;;;;;;;;;6130301;23;20002;-91
2023/12/19 00:33:30;;;;;;;49.95;21.55;;;;;;;;;;6130191;23;20010;-92
2023/12/19 00:36:02;;;;;;;46.97;21.75;;;;;;;;;;6130437;23;20008;-91
2023/12/19 00:41:32;;;;;;;48.28;22.33;;;;;;;;;;6155093;23;20016;-91
2023/12/19 00:44:04;;;;;;;52.35;24.90;;;;;;;;;;6130298;23;20009;-89
2023/12/19 00:49:43;;;;;;;45.90;21.67;;;;;;;;;;6155136;23;20017;-92
2023/12/19 00:52:12;;;;;;;38.25;20.08;;;;;;;;;;6165422;23;20005;-91
2023/12/19 00:54:41;;;;;;;39.40;20.55;;;;;;;;;;6190342;23;20000;-91
2023/12/19 00:57:10;;;;;;;57.67;25.90;;;;;;;;;;6190322;23;20463;-90
2023/12/19 00:59:42;;;;;;;55.28;25.85;;;;;;;;;;6190400;23;20051;-91
2023/12/19 01:02:08;;;;;;;63.78;26.27;;;;;;;;;;6189972;23;20097;-91
2023/12/19 01:04:40;;;;;;;58.45;26.63;;;;;;;;;;6190667;23;20012;-91
2023/12/19 01:07:21;;;;;;;52.75;22.25;;;;;;;;;;6190776;23;20012;-91
2023/12/19 01:09:47;;;;;;;45.03;22.40;;;;;;;;;;6190868;23;20374;-91
2023/12/19 01:12:14;;;;;;;49.67;22.13;;;;;;;;;;6190356;23;20043;-92
2023/12/19 01:14:46;;;;;;;50.08;24.95;;;;;;;;;;6190429;23;20330;-92
2023/12/19 01:17:12;;;;;;;42.10;21.13;;;;;;;;;;6190788;23;20009;-91
2023/12/19 01:19:41;;;;;;;52.10;24.08;;;;;;;;;;6191213;23;20004;-91
2023/12/19 01:22:10;;;;;;;53.25;25.00;;;;;;;;;;6191482;23;20456;-91
2023/12/19 01:24:39;;;;;;;50.08;22.90;;;;;;;;;;6191057;23;20330;-90
2023/12/19 01:27:11;;;;;;;54.85;24.85;;;;;;;;;;6195127;23;19997;-93
2023/12/19 01:29:38;;;;;;;48.67;24.25;;;;;;;;;;6214258;23;20012;-93
2023/12/19 01:32:07;;;;;;;53.53;24.65;;;;;;;;;;6208711;23;20012;-93
2023/12/19 01:34:57;;;;;;;54.05;25.60;;;;;;;;;;6190258;23;20001;-92
2023/12/19 01:37:29;;;;;;;53.80;23.98;;;;;;;;;;6190322;23;20005;-92
2023/12/19 01:39:59;;;;;;;51.42;24.25;;;;;;;;;;6191509;23;20009;-92
2023/12/19 01:42:28;;;;;;;50.65;25.02;;;;;;;;;;6190001;23;20512;-92
2023/12/19 01:45:13;;;;;;;48.85;22.77;;;;;;;;;;6189801;23;20024;-92
2023/12/19 01:47:46;;;;;;;48.33;21.60;;;;;;;;;;6189823;23;20024;-91
2023/12/19 01:50:18;;;;;;;42.65;21.92;;;;;;;;;;6189905;23;20005;-92
2023/12/19 01:53:01;;;;;;;48.90;24.02;;;;;;;;;;6190092;23;20004;-92
2023/12/19 01:55:33;;;;;;;51.88;23.40;;;;;;;;;;6190277;23;20396;-92
2023/12/19 01:58:06;;;;;;;50.67;24.00;;;;;;;;;;6190078;23;20091;-92
2023/12/19 02:00:57;;;;;;;42.08;22.08;;;;;;;;;;6190241;23;20035;-92
2023/12/19 02:03:26;;;;;;;52.85;24.50;;;;;;;;;;6189857;23;20005;-91
2023/12/19 02:05:59;;;;;;;53.78;25.83;;;;;;;;;;6189658;23;20004;-92
2023/12/19 02:08:29;;;;;;;47.28;24.52;;;;;;;;;;6189634;23;20023;-91
2023/12/19 02:11:01;;;;;;;47.03;25.77;;;;;;;;;;6190064;23;20062;-92
2023/12/19 02:13:33;;;;;;;48.95;25.60;;;;;;;;;;6189842;23;20005;-93
2023/12/19 02:15:59;;;;;;;53.17;27.55;;;;;;;;;;6190252;23;20100;-92
2023/12/19 02:18:29;;;;;;;50.95;27.10;;;;;;;;;;6192840;23;20376;-92
2023/12/19 02:20:58;;;;;;;57.95;29.05;;;;;;;;;;6125392;23;20002;-93
2023/12/19 02:23:24;;;;;;;48.90;26.85;;;;;;;;;;6102014;23;20005;-92
2023/12/19 02:25:57;;;;;;;56.67;29.27;;;;;;;;;;6103261;23;20006;-92
2023/12/19 02:28:29;;;;;;;51.28;27.80;;;;;;;;;;6103297;23;20100;-92
2023/12/19 02:30:57;;;;;;;53.35;28.60;;;;;;;;;;6102739;23;20013;-92
2023/12/19 02:36:27;;;;;;;52.03;27.75;;;;;;;;;;6127854;23;20033;-92
2023/12/19 02:38:53;;;;;;;43.97;25.67;;;;;;;;;;6102980;23;20077;-91
2023/12/19 02:41:19;;;;;;;43.67;26.75;;;;;;;;;;6102965;23;20010;-92
2023/12/19 02:43:48;;;;;;;46.63;28.67;;;;;;;;;;6102847;23;20033;-92
2023/12/19 02:46:17;;;;;;;45.03;26.60;;;;;;;;;;6102761;23;20014;-92
2023/12/19 02:48:45;;;;;;;53.88;29.80;;;;;;;;;;6102426;23;20024;-91
2023/12/19 02:51:18;;;;;;;58.17;29.20;;;;;;;;;;6120889;23;20009;-92
2023/12/19 02:53:48;;;;;;;55.92;29.15;;;;;;;;;;6191866;23;20010;-92
2023/12/19 02:56:17;;;;;;;44.50;25.95;;;;;;;;;;6192032;23;20001;-93
2023/12/19 02:58:49;;;;;;;42.38;25.88;;;;;;;;;;6191517;23;20062;-92
2023/12/19 03:01:15;;;;;;;55.40;28.35;;;;;;;;;;6191808;23;20008;-93
2023/12/19 03:03:48;;;;;;;46.75;27.23;;;;;;;;;;6191959;23;20076;-92
2023/12/19 03:06:14;;;;;;;56.43;27.40;;;;;;;;;;6189229;23;20009;-92
2023/12/19 03:08:45;;;;;;;61.97;29.45;;;;;;;;;;6204216;23;20025;-92
2023/12/19 03:14:17;;;;;;;64.05;28.52;;;;;;;;;;6220889;23;20016;-92
2023/12/19 03:16:49;;;;;;;83.13;33.38;;;;;;;;;;6192002;23;20024;-94
2023/12/19 03:19:18;;;;;;;82.88;32.38;;;;;;;;;;6192139;23;20009;-92
2023/12/19 03:24:51;;;;;;;95.95;34.67;;;;;;;;;;6218528;23;20135;-91
2023/12/19 03:27:20;;;;;;;84.80;34.45;;;;;;;;;;6191715;23;20020;-92
2023/12/19 03:29:46;;;;;;;99.32;36.45;;;;;;;;;;6192455;23;20023;-92
2023/12/19 03:32:13;;;;;;;102.45;37.17;;;;;;;;;;6192544;23;20301;-91
2023/12/19 03:34:39;;;;;;;75.47;30.33;;;;;;;;;;6191381;23;20003;-91
2023/12/19 03:37:08;;;;;;;71.70;29.80;;;;;;;;;;6191803;23;20028;-91
2023/12/19 03:39:40;;;;;;;107.30;33.95;;;;;;;;;;6191694;23;20079;-92
2023/12/19 03:42:18;;;;;;;94.10;32.40;;;;;;;;;;6192801;23;20568;-92
2023/12/19 03:47:50;;;;;;;99.93;31.98;;;;;;;;;;6218233;23;20027;-92
2023/12/19 03:50:20;;;;;;;89.97;31.83;;;;;;;;;;6191496;23;20126;-92
2023/12/19 03:52:52;;;;;;;97.55;29.17;;;;;;;;;;6192083;23;20087;-92
2023/12/19 03:55:27;;;;;;;65.50;24.98;;;;;;;;;;6191755;23;20012;-91
2023/12/19 03:57:56;;;;;;;101.07;33.63;;;;;;;;;;6191685;23;20034;-92
2023/12/19 04:00:25;;;;;;;86.07;31.80;;;;;;;;;;6191557;23;20005;-92
2023/12/19 04:02:54;;;;;;;68.63;26.17;;;;;;;;;;6191726;23;20009;-92
2023/12/19 04:05:29;;;;;;;98.10;32.42;;;;;;;;;;6125898;23;20013;-92
2023/12/19 04:07:57;;;;;;;81.22;30.35;;;;;;;;;;6109105;23;20018;-90
2023/12/19 04:10:26;;;;;;;106.72;32.83;;;;;;;;;;6126309;23;20018;-91
2023/12/19 04:13:10;;;;;;;88.28;31.00;;;;;;;;;;6126211;23;20002;-92
2023/12/19 04:15:38;;;;;;;98.85;31.90;;;;;;;;;;6126216;23;20006;-92
2023/12/19 04:18:07;;;;;;;58.63;25.25;;;;;;;;;;6125917;23;20010;-90
2023/12/19 04:20:39;;;;;;;78.75;28.42;;;;;;;;;;6125379;23;20001;-93
2023/12/19 04:23:07;;;;;;;82.22;29.15;;;;;;;;;;6125678;23;20438;-93
2023/12/19 04:25:55;;;;;;;90.68;32.25;;;;;;;;;;6126444;23;20087;-92
2023/12/19 04:28:21;;;;;;;85.20;32.40;;;;;;;;;;6125471;23;20028;-91
2023/12/19 04:30:50;;;;;;;95.38;34.60;;;;;;;;;;6126429;23;20029;-92
2023/12/19 04:33:21;;;;;;;117.75;36.75;;;;;;;;;;6126007;23;20494;-94
2023/12/19 04:35:47;;;;;;;113.55;38.53;;;;;;;;;;6151816;23;20005;-92
2023/12/19 04:38:27;;;;;;;;;;;;;;;;;;;;;
2023/12/19 04:40:54;;;;;;;108.72;34.92;;;;;;;;;;6219216;23;20075;-91
2023/12/19 04:43:24;;;;;;;95.70;35.38;;;;;;;;;;6192162;23;20413;-92
2023/12/19 04:45:50;;;;;;;102.80;35.92;;;;;;;;;;6155295;23;20037;-92
2023/12/19 04:48:22;;;;;;;113.45;38.92;;;;;;;;;;6181319;23;20021;-92
2023/12/19 04:50:51;;;;;;;72.40;32.65;;;;;;;;;;6204259;23;20439;-93
2023/12/19 04:56:20;;;;;;;100.20;36.78;;;;;;;;;;6156030;23;20032;-93
2023/12/19 04:58:52;;;;;;;112.00;39.17;;;;;;;;;;6180461;23;20009;-92
2023/12/19 05:01:34;;;;;;;132.65;42.40;;;;;;;;;;6180615;23;20005;-92
2023/12/19 05:04:03;;;;;;;113.07;38.60;;;;;;;;;;6179908;23;20485;-92
2023/12/19 05:06:32;;;;;;;129.45;45.78;;;;;;;;;;6179811;23;20017;-93
2023/12/19 05:09:02;;;;;;;143.38;48.85;;;;;;;;;;6205234;23;20028;-92
2023/12/19 05:11:37;;;;;;;152.43;50.05;;;;;;;;;;6160299;23;20009;-91
2023/12/19 05:14:06;;;;;;;138.15;45.88;;;;;;;;;;6160008;23;20083;-89
2023/12/19 05:16:38;;;;;;;115.50;44.70;;;;;;;;;;6172105;23;20055;-90
2023/12/19 05:19:11;;;;;;;103.13;43.53;;;;;;;;;;6190690;23;20010;-91
2023/12/19 05:25:10;;;;;;;93.72;38.88;;;;;;;;;;6217684;23;20031;-91
2023/12/19 05:27:46;;;;;;;127.63;44.30;;;;;;;;;;6191092;23;20459;-91
2023/12/19 05:30:16;;;;;;;137.43;51.65;;;;;;;;;;6190710;23;20008;-92
2023/12/19 05:32:42;;;;;;;134.00;51.65;;;;;;;;;;6191517;23;20420;-91
2023/12/19 05:35:14;;;;;;;131.65;49.78;;;;;;;;;;6190923;23;20001;-92
2023/12/19 05:37:40;;;;;;;114.75;45.90;;;;;;;;;;6191106;23;19993;-92
2023/12/19 05:40:25;;;;;;;126.63;48.97;;;;;;;;;;6190779;23;20028;-93
2023/12/19 05:43:00;;;;;;;124.00;44.17;;;;;;;;;;6212895;23;20147;-91
2023/12/19 05:45:31;;;;;;;112.78;42.53;;;;;;;;;;6190654;23;20004;-92
2023/12/19 05:48:08;;;;;;;101.88;40.08;;;;;;;;;;6190338;23;20013;-92
2023/12/19 05:50:37;;;;;;;115.10;41.58;;;;;;;;;;6192801;23;20004;-93
2023/12/19 05:56:01;;;;;;;113.88;39.33;;;;;;;;;;6219556;23;20083;-96
2023/12/19 05:58:33;;;;;;;98.82;37.30;;;;;;;;;;6191339;23;20004;-91
2023/12/19 06:01:00;;;;;;;105.85;37.40;;;;;;;;;;6191930;23;20012;-91
2023/12/19 06:03:29;;;;;;;96.30;35.65;;;;;;;;;;6220119;23;20103;-93
2023/12/19 06:05:55;;;;;;;109.90;36.80;;;;;;;;;;6192363;23;20132;-92
2023/12/19 06:08:25;;;;;;;110.20;37.72;;;;;;;;;;6192656;23;20024;-91
2023/12/19 06:10:54;;;;;;;107.28;37.60;;;;;;;;;;6193210;23;20055;-92
2023/12/19 06:13:20;;;;;;;104.85;36.50;;;;;;;;;;6192013;23;20012;-93
2023/12/19 06:15:47;;;;;;;103.85;38.05;;;;;;;;;;6192545;23;20011;-90
2023/12/19 06:18:15;;;;;;;101.47;37.30;;;;;;;;;;6194288;23;20091;-91
2023/12/19 06:20:43;;;;;;;95.85;36.38;;;;;;;;;;6197060;23;20159;-94
2023/12/19 06:26:16;;;;;;;112.03;37.83;;;;;;;;;;6219752;23;20062;-93
2023/12/19 06:28:45;;;;;;;110.30;38.60;;;;;;;;;;6194062;23;20016;-93
2023/12/19 06:31:12;;;;;;;92.30;36.47;;;;;;;;;;6206851;23;20028;-93
2023/12/19 06:33:38;;;;;;;72.93;33.53;;;;;;;;;;6218399;23;19991;-92
2023/12/19 06:36:07;;;;;;;103.80;41.25;;;;;;;;;;6194380;23;20013;-93
2023/12/19 06:38:33;;;;;;;98.88;38.90;;;;;;;;;;6192642;23;20001;-93
2023/12/19 06:41:03;;;;;;;89.05;38.75;;;;;;;;;;6192516;23;20004;-93
2023/12/19 06:43:29;;;;;;;94.15;39.38;;;;;;;;;;6192585;23;20001;-92
2023/12/19 06:46:01;;;;;;;79.10;35.55;;;;;;;;;;6191761;23;20008;-93
2023/12/19 06:48:27;;;;;;;72.22;33.60;;;;;;;;;;6193048;23;20013;-94
2023/12/19 06:50:53;;;;;;;63.10;28.92;;;;;;;;;;6192782;23;20001;-93
2023/12/19 06:53:22;;;;;;;63.80;30.60;;;;;;;;;;6192867;23;20070;-92
2023/12/19 06:55:58;;;;;;;81.43;34.60;;;;;;;;;;6192087;23;20066;-93
2023/12/19 06:58:30;;;;;;;64.10;30.63;;;;;;;;;;6192140;23;20001;-93
2023/12/19 07:00:56;;;;;;;64.47;31.58;;;;;;;;;;6192035;23;20088;-92
2023/12/19 07:03:29;;;;;;;56.92;29.05;;;;;;;;;;6192593;23;20039;-93
2023/12/19 07:06:04;;;;;;;71.53;32.85;;;;;;;;;;6156057;23;20025;-92
2023/12/19 07:08:32;;;;;;;89.90;40.30;;;;;;;;;;6156442;23;20076;-93
2023/12/19 07:11:01;;;;;;;74.78;35.88;;;;;;;;;;6131711;23;20106;-92
2023/12/19 07:13:31;;;;;;;68.57;33.90;;;;;;;;;;6131943;23;20088;-94
2023/12/19 07:15:59;;;;;;;78.60;35.47;;;;;;;;;;6131838;23;20002;-92
2023/12/19 07:18:35;;;;;;;119.93;48.33;;;;;;;;;;6133062;23;20005;-93
2023/12/19 07:21:04;;;;;;;106.78;45.30;;;;;;;;;;6149538;23;20024;-93
2023/12/19 07:23:30;;;;;;;114.55;48.10;;;;;;;;;;6132328;23;20041;-93
2023/12/19 07:25:58;;;;;;;116.63;48.65;;;;;;;;;;6131850;23;20012;-93
2023/12/19 07:31:31;;;;;;;118.50;46.05;;;;;;;;;;6158908;23;20013;-94
2023/12/19 07:34:07;;;;;;;115.45;46.65;;;;;;;;;;6132609;23;20006;-92
2023/12/19 07:36:36;;;;;;;126.60;47.85;;;;;;;;;;6158501;23;20009;-92
2023/12/19 07:39:14;;;;;;;123.60;47.42;;;;;;;;;;6196463;23;20000;-92
2023/12/19 07:41:43;;;;;;;111.28;47.17;;;;;;;;;;6222403;23;20024;-95
2023/12/19 07:44:10;;;;;;;101.65;48.83;;;;;;;;;;6196638;23;20007;-93
2023/12/19 07:46:57;;;;;;;108.28;47.10;;;;;;;;;;6194178;23;20009;-93
2023/12/19 07:49:23;;;;;;;85.95;41.55;;;;;;;;;;6193719;23;20070;-93
2023/12/19 07:51:52;;;;;;;124.38;48.80;;;;;;;;;;6196339;23;20008;-93
2023/12/19 07:54:25;;;;;;;105.57;45.17;;;;;;;;;;6194710;23;20011;-94
2023/12/19 07:56:54;;;;;;;127.57;46.95;;;;;;;;;;6159179;23;20423;-95
2023/12/19 07:59:27;;;;;;;212.63;53.53;;;;;;;;;;6145498;23;20199;-95
2023/12/19 08:02:00;;;;;;;164.73;48.13;;;;;;;;;;6138819;23;20044;-95
2023/12/19 08:08:05;;;;;;;121.20;39.05;;;;;;;;;;6173371;23;20141;-95
2023/12/19 08:10:32;;;;;;;209.32;49.85;;;;;;;;;;6142907;23;20008;-92
2023/12/19 08:12:59;;;;;;;184.23;55.78;;;;;;;;;;6156039;23;19998;-94
2023/12/19 08:15:47;;;;;;;397.75;71.88;;;;;;;;;;6171298;23;20031;-96
2023/12/19 08:18:44;;;;;;;157.82;48.10;;;;;;;;;;6217144;22;20021;-94
2023/12/19 08:21:13;;;;;;;95.65;36.67;;;;;;;;;;6216345;23;20431;-93
2023/12/19 08:29:29;;;;;;;243.10;65.32;;;;;;;;;;6202321;22;20044;-96
2023/12/19 08:32:07;;;;;;;226.90;58.28;;;;;;;;;;6215570;23;20060;-96
2023/12/19 08:34:33;;;;;;;180.38;49.80;;;;;;;;;;6214487;23;20012;-91
2023/12/19 08:37:02;;;;;;;316.63;68.65;;;;;;;;;;6211383;23;20032;-92
2023/12/19 08:39:58;;;;;;;198.27;60.45;;;;;;;;;;6215374;23;20001;-93
2023/12/19 08:42:29;;;;;;;600.25;91.63;;;;;;;;;;6216688;23;20339;-92
2023/12/19 08:44:55;;;;;;;285.60;64.38;;;;;;;;;;6217965;23;20012;-92
2023/12/19 08:47:40;;;;;;;148.48;52.00;;;;;;;;;;6217854;23;20039;-93
2023/12/19 08:58:19;;;;;;;77.93;37.28;;;;;;;;;;6191302;23;20033;-95
2023/12/19 09:01:01;;;;;;;73.40;37.15;;;;;;;;;;6202090;22;20028;-94
2023/12/19 09:03:31;;;;;;;105.07;42.40;;;;;;;;;;6229448;23;20052;-94
2023/12/19 09:09:11;;;;;;;76.15;35.63;;;;;;;;;;6197109;23;20060;-94
2023/12/19 09:11:52;;;;;;;220.85;52.95;;;;;;;;;;6165414;23;20009;-96
2023/12/19 09:14:36;;;;;;;84.55;35.42;;;;;;;;;;6143509;23;20032;-94
2023/12/19 09:17:20;;;;;;;164.68;51.30;;;;;;;;;;6129555;23;20001;-94
2023/12/19 09:19:48;;;;;;;83.28;33.83;;;;;;;;;;6134652;23;20009;-96
2023/12/19 09:22:21;;;;;;;67.00;33.28;;;;;;;;;;6141937;23;20005;-95
2023/12/19 09:24:55;;;;;;;66.95;33.67;;;;;;;;;;6147319;23;19989;-95
2023/12/19 09:27:31;;;;;;;70.15;36.05;;;;;;;;;;6144885;23;20021;-95
2023/12/19 09:30:23;;;;;;;63.65;33.10;;;;;;;;;;6146695;23;20356;-95
2023/12/19 09:32:49;;;;;;;138.32;40.70;;;;;;;;;;6145308;23;20076;-93
2023/12/19 09:35:18;;;;;;;84.38;36.85;;;;;;;;;;6146701;23;19989;-93
2023/12/19 09:37:50;;;;;;;69.05;32.83;;;;;;;;;;6145325;23;20064;-96
2023/12/19 09:40:27;;;;;;;60.05;31.02;;;;;;;;;;6148783;23;20009;-95
2023/12/19 09:43:20;;;;;;;92.97;36.72;;;;;;;;;;6198223;23;20009;-94
2023/12/19 09:46:09;;;;;;;84.20;33.83;;;;;;;;;;6179956;23;20087;-96
2023/12/19 09:49:11;;;;;;;71.47;32.13;;;;;;;;;;6177738;23;20080;-95
2023/12/19 09:54:28;;;;;;;67.03;35.45;;;;;;;;;;6229962;22;19906;-93
2023/12/19 09:56:59;;;;;;;66.50;33.47;;;;;;;;;;6238942;23;20085;-96
2023/12/19 09:59:48;;;;;;;70.95;32.83;;;;;;;;;;6239425;22;20433;-95
2023/12/19 10:02:14;;;;;;;69.68;30.85;;;;;;;;;;6236505;23;19991;-95
2023/12/19 10:08:44;;;;;;;87.78;32.33;;;;;;;;;;6143516;23;20037;-96
2023/12/19 10:20:16;;;;;;;76.47;32.25;;;;;;;;;;6263601;23;20012;-96
2023/12/19 10:22:45;;;;;;;51.72;30.15;;;;;;;;;;6238338;23;20015;-96
2023/12/19 10:25:15;;;;;;;;;;;;;;;;;;6264173;23;20004;-96
2023/12/19 10:27:47;;;;;;;77.03;33.88;;;;;;;;;;6259940;23;19915;-96
2023/12/19 10:30:18;;;;;;;173.30;40.33;;;;;;;;;;6237635;23;20039;-95
2023/12/19 10:33:00;;;;;;;104.85;38.53;;;;;;;;;;6236680;23;20030;-95
2023/12/19 10:35:51;;;;;;;;;;;;;;;;;;;;;
2023/12/19 10:41:30;;;;;;;102.68;37.33;;;;;;;;;;6250809;23;20006;-96
2023/12/19 10:44:15;;;;;;;77.00;32.75;;;;;;;;;;6224845;23;20011;-95
2023/12/19 10:46:52;;;;;;;83.15;31.85;;;;;;;;;;6224068;23;20011;-96
2023/12/19 10:49:24;;;;;;;67.65;30.88;;;;;;;;;;6233239;23;20012;-94
2023/12/19 10:51:53;;;;;;;60.72;31.52;;;;;;;;;;6242785;23;20042;-93
2023/12/19 10:54:28;;;;;;;60.95;33.13;;;;;;;;;;6222246;23;20032;-96
2023/12/19 10:57:00;;;;;;;72.10;33.28;;;;;;;;;;6196977;23;20001;-95
2023/12/19 10:59:51;;;;;;;106.53;35.05;;;;;;;;;;6197058;23;20043;-96
2023/12/19 11:02:37;;;;;;;72.00;32.85;;;;;;;;;;6196808;23;20004;-96
2023/12/19 11:05:25;;;;;;;100.47;36.10;;;;;;;;;;6196895;23;20009;-96
2023/12/19 11:07:55;;;;;;;73.80;33.55;;;;;;;;;;6194685;23;20012;-95
2023/12/19 11:10:25;;;;;;;93.45;34.63;;;;;;;;;;6192004;23;20342;-93
2023/12/19 11:13:00;;;;;;;71.63;33.13;;;;;;;;;;6191392;23;20001;-94
2023/12/19 11:15:27;;;;;;;60.80;30.90;;;;;;;;;;6191640;23;20035;-94
2023/12/19 11:18:07;;;;;;;57.25;30.42;;;;;;;;;;6192903;23;20012;-94
2023/12/19 11:20:39;;;;;;;115.55;37.33;;;;;;;;;;6192758;23;20012;-94
2023/12/19 11:23:28;;;;;;;82.32;35.13;;;;;;;;;;6193056;23;20028;-93
2023/12/19 11:26:14;;;;;;;182.20;43.38;;;;;;;;;;6205566;23;20008;-96
2023/12/19 11:28:52;;;;;;;72.60;36.03;;;;;;;;;;6204155;23;20487;-93
2023/12/19 11:31:31;;;;;;;65.93;36.25;;;;;;;;;;6238293;23;19989;-92
2023/12/19 11:34:17;;;;;;;97.30;39.38;;;;;;;;;;6195213;23;20031;-93
2023/12/19 11:37:13;;;;;;;66.18;35.40;;;;;;;;;;6220910;23;20016;-94
2023/12/19 11:40:16;;;;;;;97.13;36.83;;;;;;;;;;6229419;23;19992;-93
2023/12/19 11:49:06;;;;;;;62.10;35.22;;;;;;;;;;6159418;23;20021;-96
2023/12/19 11:51:55;;;;;;;;;;;;;;;;;;;;;
2023/12/19 11:57:40;;;;;;;69.35;35.15;;;;;;;;;;6208829;23;20005;-95
2023/12/19 12:00:14;;;;;;;85.38;36.50;;;;;;;;;;6193528;23;20011;-95
2023/12/19 12:02:40;;;;;;;65.00;34.33;;;;;;;;;;6216445;23;20087;-94
2023/12/19 12:05:12;;;;;;;77.80;33.33;;;;;;;;;;6217602;23;20012;-93
2023/12/19 12:07:48;;;;;;;77.03;34.83;;;;;;;;;;6216210;23;20017;-94
2023/12/19 12:10:21;;;;;;;78.22;36.72;;;;;;;;;;6216645;23;20000;-94
2023/12/19 12:13:02;;;;;;;66.70;34.70;;;;;;;;;;6216847;23;20438;-93
2023/12/19 12:15:28;;;;;;;64.32;32.33;;;;;;;;;;6216074;23;20020;-93
2023/12/19 12:18:04;;;;;;;64.18;32.38;;;;;;;;;;6216177;23;20009;-94
2023/12/19 12:20:37;;;;;;;66.35;35.13;;;;;;;;;;6216774;23;20015;-94
2023/12/19 12:23:04;;;;;;;72.25;33.83;;;;;;;;;;6168603;23;20005;-94
2023/12/19 12:25:38;;;;;;;103.97;36.47;;;;;;;;;;6216514;23;20005;-93
2023/12/19 12:28:17;;;;;;;110.88;40.90;;;;;;;;;;6216066;23;20446;-93
2023/12/19 12:30:44;;;;;;;67.65;33.35;;;;;;;;;;6215861;23;20011;-93
2023/12/19 12:33:13;;;;;;;131.18;40.72;;;;;;;;;;6216374;23;20009;-91
2023/12/19 12:35:42;;;;;;;115.30;39.17;;;;;;;;;;6216463;23;20073;-94
2023/12/19 12:38:17;;;;;;;90.50;37.00;;;;;;;;;;6216749;23;20012;-94
2023/12/19 12:41:04;;;;;;;83.13;37.08;;;;;;;;;;6217410;23;20000;-94
2023/12/19 12:43:49;;;;;;;62.88;35.25;;;;;;;;;;6217133;23;20012;-94
2023/12/19 12:46:19;;;;;;;69.03;34.45;;;;;;;;;;6216779;23;20000;-95
2023/12/19 12:48:57;;;;;;;60.33;33.47;;;;;;;;;;6216809;23;20430;-94
2023/12/19 12:51:24;;;;;;;65.07;33.38;;;;;;;;;;6216730;23;20001;-95
2023/12/19 12:53:57;;;;;;;86.38;36.45;;;;;;;;;;6217071;23;20040;-94
2023/12/19 12:56:30;;;;;;;71.05;33.72;;;;;;;;;;6215661;23;20004;-93
2023/12/19 12:59:00;;;;;;;67.20;35.42;;;;;;;;;;6215675;23;20485;-93
2023/12/19 13:01:30;;;;;;;83.72;35.42;;;;;;;;;;6216516;23;20005;-94
2023/12/19 13:03:57;;;;;;;73.57;33.78;;;;;;;;;;6216639;23;20027;-92
2023/12/19 13:06:26;;;;;;;102.80;38.88;;;;;;;;;;6217273;23;20337;-94
2023/12/19 13:08:59;;;;;;;109.90;41.35;;;;;;;;;;6215418;23;20016;-94
2023/12/19 13:11:29;;;;;;;74.90;37.50;;;;;;;;;;6218373;23;20417;-96
2023/12/19 13:13:55;;;;;;;69.28;36.58;;;;;;;;;;6239750;23;20083;-94
2023/12/19 13:16:21;;;;;;;88.80;38.35;;;;;;;;;;6228757;22;20036;-95
2023/12/19 13:18:51;;;;;;;94.90;38.28;;;;;;;;;;6162372;23;20005;-94
2023/12/19 13:21:20;;;;;;;99.53;43.10;;;;;;;;;;6167212;23;20016;-94
2023/12/19 13:23:52;;;;;;;73.50;38.55;;;;;;;;;;6161942;23;20008;-94
2023/12/19 13:26:18;;;;;;;108.68;44.80;;;;;;;;;;6161392;23;20005;-95
2023/12/19 13:28:44;;;;;;;76.82;39.83;;;;;;;;;;6161703;23;20017;-95
2023/12/19 13:31:29;;;;;;;77.65;38.65;;;;;;;;;;6161227;23;20005;-94
2023/12/19 13:33:57;;;;;;;78.10;38.75;;;;;;;;;;6161176;23;20048;-94
2023/12/19 13:36:23;;;;;;;73.72;37.03;;;;;;;;;;6161762;23;20031;-95
2023/12/19 13:38:53;;;;;;;75.57;37.05;;;;;;;;;;6161077;23;20005;-94
2023/12/19 13:41:23;;;;;;;107.07;42.10;;;;;;;;;;6160426;23;20009;-95
2023/12/19 13:43:52;;;;;;;90.35;43.75;;;;;;;;;;6161441;23;20116;-94
2023/12/19 13:49:36;;;;;;;106.20;47.95;;;;;;;;;;6188396;23;20037;-95
2023/12/19 13:55:37;;;;;;;65.78;36.90;;;;;;;;;;6102536;23;20134;-94
2023/12/19 14:03:55;;;;;;;142.02;48.88;;;;;;;;;;6209917;23;20107;-95
2023/12/19 14:06:25;;;;;;;76.70;38.97;;;;;;;;;;6191147;23;20005;-94
2023/12/19 14:15:30;;;;;;;73.82;38.47;;;;;;;;;;6125954;23;20016;-93
2023/12/19 14:24:32;;;;;;;116.03;46.97;;;;;;;;;;6126908;23;20009;-94
2023/12/19 14:26:58;;;;;;;109.25;46.10;;;;;;;;;;6103224;23;20363;-96
2023/12/19 14:29:25;;;;;;;84.22;40.83;;;;;;;;;;6103271;23;20011;-95
2023/12/19 14:31:51;;;;;;;125.47;43.17;;;;;;;;;;6159512;23;20011;-92
2023/12/19 14:34:17;;;;;;;119.57;42.70;;;;;;;;;;6192617;23;20028;-93
2023/12/19 14:36:49;;;;;;;125.50;44.17;;;;;;;;;;6193739;23;20008;-93
2023/12/19 14:39:27;;;;;;;96.07;47.08;;;;;;;;;;6192986;23;20008;-92
2023/12/19 14:41:53;;;;;;;107.82;47.67;;;;;;;;;;6192490;23;20038;-94
2023/12/19 14:44:23;;;;;;;97.32;45.88;;;;;;;;;;6192894;23;20083;-93
2023/12/19 14:46:55;;;;;;;127.20;48.72;;;;;;;;;;6192289;23;20001;-94
2023/12/19 14:49:21;;;;;;;81.13;41.17;;;;;;;;;;6193748;23;20009;-95
2023/12/19 14:51:50;;;;;;;158.38;48.65;;;;;;;;;;6194698;23;20000;-95
2023/12/19 14:54:16;;;;;;;101.53;43.92;;;;;;;;;;6199979;23;19989;-92
2023/12/19 14:56:43;;;;;;;87.88;40.53;;;;;;;;;;6216786;23;20021;-94
2023/12/19 14:59:09;;;;;;;79.68;40.38;;;;;;;;;;6216438;23;20027;-94
2023/12/19 15:01:38;;;;;;;111.38;44.30;;;;;;;;;;6243529;23;20004;-95
2023/12/19 15:04:10;;;;;;;100.28;43.70;;;;;;;;;;6246666;23;20036;-96
2023/12/19 15:07:00;;;;;;;79.13;41.50;;;;;;;;;;6246829;23;20024;-96
2023/12/19 15:09:29;;;;;;;121.13;42.80;;;;;;;;;;6191105;23;20040;-93
2023/12/19 15:11:59;;;;;;;88.18;42.25;;;;;;;;;;6245170;23;20001;-93
2023/12/19 15:17:35;;;;;;;221.95;49.58;;;;;;;;;;6221885;23;20014;-95
2023/12/19 15:20:08;;;;;;;351.88;61.38;;;;;;;;;;6246419;23;20016;-96
2023/12/19 15:22:35;;;;;;;;;;;;;;;;;;6223552;23;20075;-95
2023/12/19 15:25:07;;;;;;;172.20;49.88;;;;;;;;;;6222145;23;19884;-96
2023/12/19 15:27:36;;;;;;;170.23;42.63;;;;;;;;;;6250400;23;20004;-96
2023/12/19 15:30:12;;;;;;;72.38;38.22;;;;;;;;;;6249505;23;20011;-95
2023/12/19 15:32:41;;;;;;;97.68;40.90;;;;;;;;;;6247574;23;20005;-95
2023/12/19 15:35:11;;;;;;;85.80;38.38;;;;;;;;;;6225092;23;20044;-94
2023/12/19 15:37:40;;;;;;;91.10;40.10;;;;;;;;;;6248887;23;20008;-95
2023/12/19 15:40:09;;;;;;;110.22;38.22;;;;;;;;;;6246734;23;20012;-94
2023/12/19 15:42:38;;;;;;;111.57;40.30;;;;;;;;;;6249509;23;20461;-93
2023/12/19 15:45:06;;;;;;;97.88;42.25;;;;;;;;;;6254418;23;20012;-93
2023/12/19 15:47:37;;;;;;;104.07;39.37;;;;;;;;;;6219700;23;20032;-94
2023/12/19 15:50:09;;;;;;;84.57;39.00;;;;;;;;;;6246579;23;20267;-94
2023/12/19 15:52:35;;;;;;;393.45;57.78;;;;;;;;;;6234924;23;20052;-95
2023/12/19 15:55:02;;;;;;;170.57;48.40;;;;;;;;;;6254503;23;20016;-93
2023/12/19 15:57:28;;;;;;;100.10;40.95;;;;;;;;;;6249470;23;20087;-95
2023/12/19 16:00:08;;;;;;;99.65;40.45;;;;;;;;;;6239638;23;20047;-93
2023/12/19 16:02:35;;;;;;;81.43;36.42;;;;;;;;;;6242642;23;20009;-93
2023/12/19 16:05:14;;;;;;;103.53;40.40;;;;;;;;;;6242895;23;20082;-93
2023/12/19 16:07:49;;;;;;;70.47;36.92;;;;;;;;;;6243089;23;20009;-95
2023/12/19 16:10:16;;;;;;;64.47;35.03;;;;;;;;;;6243390;23;20005;-94
2023/12/19 16:12:49;;;;;;;76.65;34.92;;;;;;;;;;6238728;23;20008;-92
2023/12/19 16:15:20;;;;;;;80.13;40.10;;;;;;;;;;6219661;23;20377;-93
2023/12/19 16:17:47;;;;;;;246.32;50.97;;;;;;;;;;6243025;23;20139;-92
2023/12/19 16:23:32;;;;;;;74.13;38.00;;;;;;;;;;6194735;23;20012;-94
2023/12/19 16:26:04;;;;;;;338.10;53.03;;;;;;;;;;6241754;23;20461;-94
2023/12/19 16:28:37;;;;;;;73.90;36.40;;;;;;;;;;6241555;23;20016;-94
2023/12/19 16:31:03;;;;;;;147.63;42.10;;;;;;;;;;6242000;23;20008;-90
2023/12/19 16:33:30;;;;;;;142.95;41.70;;;;;;;;;;6241985;23;20032;-95
2023/12/19 16:35:59;;;;;;;113.68;38.53;;;;;;;;;;6244642;23;20307;-93
2023/12/19 16:38:34;;;;;;;90.13;39.67;;;;;;;;;;6266742;22;19997;-91